ADDS METAR Data INFO
IDs: Format: Raw Decoded Include TAF

Data at: 0109 UTC 24 Jun 2018

KAIZ 240056Z AUTO 00000KT 10SM CLR 26/19 A2982 RMK AO2 SLP092 T02610194
KAIZ 232356Z AUTO 25004KT 10SM CLR 28/18 A2982 RMK AO2 SLP089 T02780183 10289 20261 53002
KAIZ 232256Z AUTO 25006KT 10SM CLR 29/18 A2981 RMK AO2 SLP086 T02890183
KAIZ 232156Z AUTO VRB04KT 10SM CLR 28/18 A2981 RMK AO2 SLP087 T02830183
KAIZ 232056Z AUTO 30007G15KT 260V330 10SM SCT042 SCT050 28/18 A2981 RMK AO2 SLP087 T02830183 50000
KAIZ 231956Z AUTO 35005KT 10SM BKN040 28/19 A2982 RMK AO2 SLP087 T02830189
KAIZ 231856Z AUTO VRB03KT 10SM BKN038 27/18 A2981 RMK AO2 SLP087 T02720183
KAIZ 231756Z AUTO 33004KT 10SM BKN033 BKN042 27/19 A2981 RMK AO2 SLP087 T02670189 10267 20178 50000
KAIZ 231656Z AUTO VRB06KT 10SM BKN031 27/18 A2981 RMK AO2 SLP088 T02670183
KAIZ 231652Z AUTO VRB03KT 10SM BKN029 26/18 A2981 RMK AO2
KAIZ 231556Z AUTO 00000KT 10SM CLR 24/18 A2981 RMK AO2 SLP088 T02440178
KAIZ 231456Z AUTO 00000KT 10SM CLR 23/17 A2982 RMK AO2 SLP091 T02280172 50000
KAIZ 231356Z AUTO 19003KT 10SM OVC100 20/18 A2983 RMK AO2 SLP094 T02000183
KAIZ 231256Z AUTO 00000KT 10SM OVC110 18/18 A2982 RMK AO2 SLP091 T01830178
KAIZ 231156Z AUTO 00000KT 10SM CLR 18/17 A2982 RMK AO2 SLP089 T01780172 10200 20167 50008
KAIZ 231056Z AUTO 00000KT 10SM BKN110 17/17 A2984 RMK AO2 SLP098 T01720167
KAIZ 230956Z AUTO 00000KT 10SM CLR 17/17 A2981 RMK AO2 SLP086 T01670167
KAIZ 230856Z AUTO 00000KT 10SM CLR 18/17 A2979 RMK AO2 SLP083 T01780172 56019
KAIZ 230756Z AUTO 00000KT 10SM FEW049 19/18 A2981 RMK AO2 SLP087 T01890178
KAIZ 230656Z AUTO 00000KT 10SM OVC049 20/18 A2982 RMK AO2 SLP091 T02000178
KAIZ 230556Z AUTO 00000KT 10SM OVC042 20/18 A2985 RMK AO2 SLP102 T02000178 10228 20194 402500167 51010
KAIZ 230456Z AUTO 29003KT 10SM OVC042 19/18 A2984 RMK AO2 SLP098 T01940178
KAIZ 230356Z AUTO 26005KT 10SM OVC040 20/18 A2983 RMK AO2 SLP096 T02000183
KAIZ 230256Z AUTO 00000KT 10SM OVC040 20/18 A2982 RMK AO2 SLP089 T02000183 53012
KAIZ 230156Z AUTO 00000KT 10SM OVC044 20/18 A2979 RMK AO2 SLP079 T02000178
KAIZ 230056Z AUTO 36005KT 10SM BKN046 22/18 A2978 RMK AO2 SLP076 T02170178
KAIZ 230006Z AUTO 35005KT 10SM FEW028 BKN037 OVC048 23/18 A2978 RMK AO2
KAIZ 222356Z AUTO VRB04KT 10SM BKN028 BKN036 OVC047 23/18 A2978 RMK AO2 SLP077 T02280183 10250 20228 55007
KAIZ 222256Z AUTO 32007KT 300V010 10SM FEW030 SCT038 BKN048 24/18 A2977 RMK AO2 SLP076 T02440183
KAIZ 222156Z AUTO VRB06KT 10SM SCT027 OVC050 24/19 A2979 RMK AO2 SLP081 T02440189
KAIZ 222056Z AUTO 30007KT 10SM FEW025 BKN048 OVC055 24/18 A2980 RMK AO2 SLP084 T02390183 58004
KAIZ 222045Z AUTO 32007KT 280V030 10SM SCT025 SCT047 OVC055 24/18 A2980 RMK AO2
KAIZ 222037Z AUTO 31009KT 280V340 10SM BKN025 BKN041 OVC055 24/18 A2981 RMK AO2
KAIZ 222024Z AUTO 31007KT 270V340 10SM FEW025 BKN045 OVC050 24/19 A2981 RMK AO2
KAIZ 221956Z AUTO VRB04KT 10SM BKN027 BKN034 OVC055 24/19 A2981 RMK AO2 SLP089 T02390189
KAIZ 221952Z AUTO 35008KT 10SM BKN027 BKN034 OVC055 24/19 A2981 RMK AO2
KAIZ 221928Z AUTO VRB06KT 10SM SCT027 SCT032 OVC050 24/18 A2982 RMK AO2
KAIZ 221856Z AUTO 28006KT 10SM BKN027 BKN036 OVC049 24/18 A2982 RMK AO2 SLP090 T02390183
KAIZ 221756Z AUTO 32006KT 10SM BKN019 OVC025 23/19 A2982 RMK AO2 SLP093 60000 T02280189 10228 20189 50001
KAIZ 221656Z AUTO 26007KT 10SM SCT017 BKN024 OVC055 22/19 A2983 RMK AO2 SLP095 T02220189
KAIZ 221556Z AUTO 27008KT 10SM FEW010 BKN016 BKN021 22/18 A2982 RMK AO2 RAE08 SLP090 P0000 T02220183
KAIZ 221538Z AUTO VRB05KT 10SM FEW007 BKN010 OVC055 22/19 A2982 RMK AO2 RAE08 P0000
KAIZ 221506Z AUTO 31003KT 9SM -RA SCT018 BKN028 OVC041 20/19 A2982 RMK AO2 P0000
KAIZ 221456Z AUTO 32004KT 10SM -RA SCT028 OVC039 21/18 A2982 RMK AO2 RAB56 SLP090 P0000 60000 T02060183 53005
KAIZ 221425Z AUTO 28004KT 10SM SCT009 BKN030 OVC039 20/18 A2982 RMK AO2
KAIZ 221410Z AUTO 00000KT 10SM BKN009 OVC021 20/19 A2982 RMK AO2 CIG 007V011
KAIZ 221356Z AUTO 34005KT 10SM FEW009 OVC021 20/18 A2981 RMK AO2 SLP088 T02000183
KAIZ 221332Z AUTO 34005KT 10SM FEW009 OVC017 19/18 A2981 RMK AO2